Time;durP1;ratioP1;P1;durP2;ratioP2;P2;SDS_P1;SDS_P2;PMS_P1;PMS_P2;Temp;Humidity;BMP_temperature;BMP_pressure;BME280_temperature;BME280_humidity;BME280_pressure;Samples;Min_cycle;Max_cycle;Signal;HPM_P1;HPM_P2
2021/03/24 00:02:17;;;;;;;7.95;4.10;;;5.00;65.70;;;;;;2523104;55;21363;-68
2021/03/24 00:04:43;;;;;;;7.55;4.75;;;5.00;65.70;;;;;;2522816;55;21064;-66
2021/03/24 00:07:12;;;;;;;8.40;4.40;;;4.90;65.60;;;;;;2276447;56;21114;-65
2021/03/24 00:09:38;;;;;;;9.35;4.45;;;4.90;65.50;;;;;;2517206;55;20939;-65
2021/03/24 00:12:06;;;;;;;8.50;3.95;;;4.90;66.30;;;;;;2288243;56;20998;-66
2021/03/24 00:14:34;;;;;;;9.45;4.50;;;4.80;65.50;;;;;;2273435;56;20963;-65
2021/03/24 00:17:01;;;;;;;7.47;3.90;;;4.80;65.50;;;;;;2270899;56;21015;-66
2021/03/24 00:19:27;;;;;;;6.12;3.22;;;4.80;65.40;;;;;;2511527;55;21058;-67
2021/03/24 00:22:04;;;;;;;7.28;3.47;;;4.70;65.30;;;;;;2277304;56;20950;-64
2021/03/24 00:24:30;;;;;;;7.72;3.53;;;4.70;65.40;;;;;;2495924;55;21014;-66
2021/03/24 00:26:57;;;;;;;5.70;3.30;;;4.60;65.30;;;;;;2288141;56;20975;-63
2021/03/24 00:29:24;;;;;;;7.10;3.67;;;4.60;65.40;;;;;;2522188;55;20975;-64
2021/03/24 00:31:51;;;;;;;7.57;3.78;;;4.60;65.50;;;;;;2280287;56;20974;-66
2021/03/24 00:34:17;;;;;;;7.87;3.40;;;4.50;65.50;;;;;;2270844;56;20991;-66
2021/03/24 00:36:44;;;;;;;5.97;3.28;;;4.50;65.50;;;;;;2504427;55;21928;-66
2021/03/24 00:39:10;;;;;;;6.40;3.20;;;4.50;65.50;;;;;;2271951;56;21747;-66
2021/03/24 00:41:38;;;;;;;6.72;2.92;;;4.40;65.50;;;;;;2289116;56;20959;-67
2021/03/24 00:44:05;;;;;;;8.02;3.72;;;4.40;65.60;;;;;;2522993;55;20959;-64
2021/03/24 00:46:31;;;;;;;6.25;3.35;;;4.40;65.60;;;;;;2289024;56;20926;-65
2021/03/24 00:48:58;;;;;;;7.20;3.60;;;4.40;65.60;;;;;;2290493;56;20957;-66
2021/03/24 00:51:24;;;;;;;8.95;3.90;;;4.40;65.60;;;;;;2272076;56;21025;-64
2021/03/24 00:53:51;;;;;;;7.20;3.65;;;4.30;65.60;;;;;;2522696;55;20959;-67
2021/03/24 00:56:17;;;;;;;6.03;3.47;;;4.30;65.60;;;;;;2274485;56;21022;-64
2021/03/24 00:58:46;;;;;;;8.15;3.85;;;4.30;65.70;;;;;;2286973;56;20967;-66
2021/03/24 01:01:13;;;;;;;8.07;3.78;;;4.20;65.70;;;;;;2288871;56;20951;-67
2021/03/24 01:03:41;;;;;;;7.32;3.50;;;4.20;65.80;;;;;;2288367;56;20978;-65
2021/03/24 01:06:08;;;;;;;8.48;4.00;;;4.20;65.80;;;;;;2278516;56;20977;-66
2021/03/24 01:08:34;;;;;;;7.30;3.33;;;4.20;65.80;;;;;;2280911;56;20971;-65
2021/03/24 01:11:00;;;;;;;7.55;3.08;;;4.20;65.90;;;;;;2278920;56;20946;-64
2021/03/24 01:13:28;;;;;;;7.87;3.62;;;4.10;65.80;;;;;;2509240;55;21018;-66
2021/03/24 01:15:54;;;;;;;9.18;3.95;;;4.10;65.80;;;;;;2291592;56;20991;-64
2021/03/24 01:18:21;;;;;;;7.62;4.03;;;4.10;65.90;;;;;;2523004;55;22271;-65
2021/03/24 01:20:48;;;;;;;7.65;3.90;;;4.10;65.80;;;;;;2522726;55;21026;-64
2021/03/24 01:23:14;;;;;;;7.85;4.15;;;4.10;65.80;;;;;;2272069;55;20966;-66
2021/03/24 01:25:41;;;;;;;9.25;4.57;;;4.00;65.70;;;;;;2277151;56;21009;-66
2021/03/24 01:28:11;;;;;;;8.40;4.10;;;4.00;65.80;;;;;;2281704;56;21030;-67
2021/03/24 01:30:41;;;;;;;8.60;4.15;;;4.00;65.90;;;;;;2278650;55;20945;-65
2021/03/24 01:33:08;;;;;;;7.72;4.10;;;4.00;65.80;;;;;;2281195;56;20955;-64
2021/03/24 01:35:36;;;;;;;8.18;3.87;;;4.00;65.90;;;;;;2523087;55;21003;-67
2021/03/24 01:38:03;;;;;;;9.07;4.15;;;3.90;65.80;;;;;;2523620;55;21420;-66
2021/03/24 01:40:33;;;;;;;11.65;4.07;;;3.90;65.80;;;;;;2288431;56;21014;-65
2021/03/24 01:43:03;;;;;;;8.02;3.42;;;3.90;65.90;;;;;;2288481;56;21037;-67
2021/03/24 01:46:34;;;;;;;7.70;3.45;;;3.90;65.90;;;;;;2288625;56;21295;-65
2021/03/24 01:49:31;;;;;;;6.57;3.15;;;3.90;65.60;;;;;;2288907;56;21496;-65
2021/03/24 01:52:07;;;;;;;6.50;3.03;;;3.90;65.80;;;;;;2270737;56;21002;-66
2021/03/24 01:54:42;;;;;;;5.75;2.95;;;3.80;65.80;;;;;;2523487;55;20959;-66
2021/03/24 01:57:14;;;;;;;7.37;3.62;;;3.80;65.80;;;;;;2523383;55;20987;-64
2021/03/24 01:59:40;;;;;;;7.32;3.60;;;3.80;65.90;;;;;;2284526;56;21482;-67
2021/03/24 02:02:23;;;;;;;6.07;3.05;;;3.80;65.90;;;;;;2507561;55;20958;-64
2021/03/24 02:04:51;;;;;;;7.07;3.45;;;3.80;65.90;;;;;;2291541;56;20939;-65
2021/03/24 02:08:07;;;;;;;6.10;3.08;;;3.80;66.00;;;;;;2497768;55;20995;-65
2021/03/24 02:10:37;;;;;;;10.18;3.30;;;3.70;65.90;;;;;;2289347;56;21763;-66
2021/03/24 02:16:36;;;;;;;8.63;3.50;;;3.70;65.90;;;;;;2288671;56;21006;-67
2021/03/24 02:19:05;;;;;;;5.68;2.67;;;3.70;65.40;;;;;;2523426;55;20959;-64
2021/03/24 02:21:35;;;;;;;7.72;3.20;;;3.70;65.80;;;;;;2289204;56;20954;-67
2021/03/24 02:25:45;;;;;;;7.37;2.75;;;3.70;65.90;;;;;;2288458;56;20975;-64
2021/03/24 02:28:12;;;;;;;8.70;3.42;;;3.60;65.70;;;;;;2523570;55;21046;-67
2021/03/24 02:30:43;;;;;;;8.20;4.00;;;3.60;65.70;;;;;;2273889;56;20938;-65
2021/03/24 02:33:20;;;;;;;8.27;4.22;;;3.60;65.80;;;;;;2287355;56;20943;-65
2021/03/24 02:35:49;;;;;;;6.65;3.83;;;3.50;65.80;;;;;;2271757;55;20978;-66
2021/03/24 02:38:16;;;;;;;6.82;3.42;;;3.50;65.80;;;;;;2288761;56;20963;-66
2021/03/24 02:40:42;;;;;;;6.82;3.50;;;3.50;65.90;;;;;;2522685;55;21002;-66
2021/03/24 02:43:10;;;;;;;7.37;3.55;;;3.50;65.90;;;;;;2523470;55;20919;-65
2021/03/24 02:45:40;;;;;;;7.95;3.70;;;3.40;65.80;;;;;;2273320;56;21029;-64
2021/03/24 02:48:10;;;;;;;8.00;3.33;;;3.40;65.90;;;;;;2289456;55;20969;-64
2021/03/24 02:50:38;;;;;;;8.45;3.87;;;3.40;66.60;;;;;;2289073;56;20975;-66
2021/03/24 02:53:05;;;;;;;8.07;3.53;;;3.40;66.00;;;;;;2523748;55;20978;-65
2021/03/24 02:55:32;;;;;;;9.35;4.75;;;3.40;66.10;;;;;;2496822;55;20995;-65
2021/03/24 02:57:58;;;;;;;8.55;4.20;;;3.40;66.10;;;;;;2270748;56;21329;-66
2021/03/24 03:00:25;;;;;;;8.00;3.75;;;3.40;66.10;;;;;;2510100;55;20967;-64
2021/03/24 03:02:54;;;;;;;8.02;4.05;;;3.30;66.10;;;;;;2478120;55;20966;-65
2021/03/24 03:05:24;;;;;;;9.20;4.55;;;3.30;66.10;;;;;;2272424;56;21050;-64
2021/03/24 03:07:57;;;;;;;7.15;3.60;;;3.30;66.20;;;;;;2270241;56;21063;-65
2021/03/24 03:10:27;;;;;;;7.90;3.80;;;3.30;66.20;;;;;;2270181;56;21022;-65
2021/03/24 03:13:22;;;;;;;9.63;3.87;;;3.30;66.30;;;;;;2263778;56;21027;-65
2021/03/24 03:16:03;;;;;;;7.55;2.92;;;3.30;66.20;;;;;;2271391;56;20958;-64
2021/03/24 03:18:48;;;;;;;7.30;3.57;;;3.30;66.30;;;;;;2285605;56;21031;-65
2021/03/24 03:21:16;;;;;;;8.20;3.65;;;3.30;66.20;;;;;;2288625;56;21699;-65
2021/03/24 03:23:42;;;;;;;9.93;4.45;;;3.20;66.20;;;;;;2288696;56;20986;-64
2021/03/24 03:26:18;;;;;;;6.85;3.20;;;3.20;66.30;;;;;;2288419;56;21086;-64
2021/03/24 03:28:47;;;;;;;8.27;3.80;;;3.20;66.40;;;;;;2277897;55;21135;-66
2021/03/24 03:31:15;;;;;;;6.75;3.30;;;3.20;66.40;;;;;;2276671;56;21046;-64
2021/03/24 03:33:44;;;;;;;10.45;4.30;;;3.20;66.40;;;;;;2276172;56;20966;-65
2021/03/24 03:36:13;;;;;;;9.05;4.15;;;3.20;66.50;;;;;;2523177;55;20943;-67
2021/03/24 03:38:39;;;;;;;9.80;4.18;;;3.20;66.50;;;;;;2288369;56;21003;-66
2021/03/24 03:41:06;;;;;;;8.77;4.45;;;3.20;66.50;;;;;;2523015;55;21832;-64
2021/03/24 03:43:33;;;;;;;7.22;3.67;;;3.20;66.50;;;;;;2523659;55;20963;-66
2021/03/24 03:46:00;;;;;;;8.27;3.40;;;3.20;66.40;;;;;;2281102;56;21038;-64
2021/03/24 03:48:26;;;;;;;9.07;3.90;;;3.20;66.50;;;;;;2278243;56;21756;-65
2021/03/24 03:51:01;;;;;;;8.18;4.20;;;3.20;66.50;;;;;;2288672;56;20954;-64
2021/03/24 03:53:42;;;;;;;6.97;3.67;;;3.20;66.50;;;;;;2503863;55;20975;-64
2021/03/24 03:56:17;;;;;;;10.38;4.43;;;3.20;66.40;;;;;;2520337;55;20959;-66
2021/03/24 03:59:38;;;;;;;9.75;4.47;;;3.20;66.50;;;;;;2288186;56;21002;-64
2021/03/24 04:02:06;;;;;;;7.35;3.58;;;3.20;66.40;;;;;;2291259;56;21054;-64
2021/03/24 04:04:41;;;;;;;7.60;3.60;;;3.10;66.60;;;;;;2498680;55;21085;-67
2021/03/24 04:07:17;;;;;;;8.85;3.85;;;3.10;66.70;;;;;;2289130;56;20974;-65
2021/03/24 04:09:46;;;;;;;7.53;3.12;;;3.20;66.70;;;;;;2278739;56;20986;-64
2021/03/24 04:12:14;;;;;;;7.43;3.67;;;3.10;66.60;;;;;;2281281;56;20935;-65
2021/03/24 04:14:41;;;;;;;8.25;3.72;;;3.10;66.60;;;;;;2288852;56;21021;-65
2021/03/24 04:17:16;;;;;;;10.70;4.80;;;3.10;66.50;;;;;;2288404;56;20935;-65
2021/03/24 04:19:45;;;;;;;6.90;3.58;;;3.10;66.40;;;;;;2523054;55;21471;-67
2021/03/24 04:22:11;;;;;;;7.45;3.67;;;3.10;66.40;;;;;;2288851;56;21643;-66
2021/03/24 04:24:40;;;;;;;8.85;4.03;;;3.10;66.40;;;;;;2279618;56;21046;-66
2021/03/24 04:27:07;;;;;;;7.53;3.10;;;3.10;66.40;;;;;;2279786;56;20951;-67
2021/03/24 04:29:39;;;;;;;9.07;4.20;;;3.10;66.40;;;;;;2288745;56;20967;-67
2021/03/24 04:32:06;;;;;;;8.90;3.83;;;3.00;66.20;;;;;;2523299;55;20955;-64
2021/03/24 04:34:33;;;;;;;7.78;4.15;;;3.00;66.10;;;;;;2288494;56;21341;-64
2021/03/24 04:37:13;;;;;;;8.00;4.10;;;3.00;66.20;;;;;;2286828;56;20990;-65
2021/03/24 04:39:42;;;;;;;8.32;4.28;;;3.00;66.20;;;;;;2505594;55;21412;-66
2021/03/24 04:42:17;;;;;;;8.63;4.05;;;3.00;66.30;;;;;;2523168;55;20963;-67
2021/03/24 04:44:45;;;;;;;9.80;4.60;;;3.00;66.40;;;;;;2520697;55;21000;-65
2021/03/24 04:47:32;;;;;;;8.82;4.45;;;3.00;66.50;;;;;;2274107;56;20998;-66
2021/03/24 04:50:01;;;;;;;9.65;4.35;;;3.00;66.40;;;;;;2290600;56;21137;-64
2021/03/24 04:52:27;;;;;;;12.05;4.45;;;3.00;67.20;;;;;;2495234;55;21007;-64
2021/03/24 04:54:54;;;;;;;9.80;4.82;;;2.90;66.40;;;;;;2288133;56;20939;-67
2021/03/24 04:57:21;;;;;;;10.43;5.07;;;2.90;66.40;;;;;;2497158;55;21902;-65
2021/03/24 04:59:51;;;;;;;9.15;4.20;;;2.90;66.40;;;;;;2288243;56;20950;-66
2021/03/24 05:02:20;;;;;;;11.23;4.30;;;2.90;66.40;;;;;;2523077;55;21034;-67
2021/03/24 05:04:53;;;;;;;7.62;4.03;;;2.90;66.40;;;;;;2522720;55;21038;-66
2021/03/24 05:07:43;;;;;;;8.60;4.03;;;2.90;66.40;;;;;;2270726;56;20954;-65
2021/03/24 05:10:29;;;;;;;9.90;4.75;;;2.90;66.30;;;;;;2288615;56;20994;-65
2021/03/24 05:13:07;;;;;;;8.43;4.20;;;2.90;66.40;;;;;;2522857;55;21529;-65
2021/03/24 05:15:36;;;;;;;9.85;4.18;;;2.90;66.50;;;;;;2288501;56;20974;-67
2021/03/24 05:18:03;;;;;;;7.50;3.53;;;2.80;66.50;;;;;;2288046;55;21903;-65
2021/03/24 05:21:13;;;;;;;8.88;4.32;;;2.80;66.60;;;;;;2502730;55;21018;-65
2021/03/24 05:23:39;;;;;;;10.77;4.57;;;2.90;66.80;;;;;;2288571;56;21038;-67
2021/03/24 05:26:33;;;;;;;10.35;5.47;;;2.90;66.90;;;;;;2287622;56;21094;-65
2021/03/24 05:29:01;;;;;;;12.10;5.32;;;2.90;67.10;;;;;;2256734;56;20970;-65
2021/03/24 05:31:29;;;;;;;12.35;5.03;;;2.90;67.20;;;;;;2287707;56;20959;-65
2021/03/24 05:34:00;;;;;;;9.75;4.80;;;2.90;67.40;;;;;;2289242;56;21011;-64
2021/03/24 05:36:50;;;;;;;9.90;4.68;;;2.90;67.50;;;;;;2289450;56;21015;-64
2021/03/24 05:39:25;;;;;;;9.68;4.60;;;2.90;67.40;;;;;;2523119;55;21045;-67
2021/03/24 05:42:19;;;;;;;10.75;5.00;;;2.90;67.50;;;;;;2288853;56;20959;-68
2021/03/24 05:48:11;;;;;;;10.93;5.40;;;2.90;67.60;;;;;;2288670;56;20947;-65
2021/03/24 05:55:35;;;;;;;7.10;3.35;;;3.00;67.80;;;;;;2502303;55;21014;-68
2021/03/24 05:58:24;;;;;;;7.15;3.65;;;3.10;67.40;;;;;;2292039;56;21023;-67
2021/03/24 06:02:16;;;;;;;6.40;3.00;;;3.10;67.70;;;;;;2270274;55;20954;-67
2021/03/24 06:04:51;;;;;;;7.75;3.30;;;3.10;67.80;;;;;;2288446;56;20955;-66
2021/03/24 06:10:35;;;;;;;7.28;3.33;;;3.10;67.80;;;;;;2265303;55;21010;-66
2021/03/24 06:18:07;;;;;;;7.60;3.45;;;3.20;67.50;;;;;;2277789;56;20993;-66
2021/03/24 06:20:47;;;;;;;7.85;2.97;;;3.20;67.40;;;;;;2280854;55;21127;-67
2021/03/24 06:23:51;;;;;;;7.60;3.50;;;3.30;67.90;;;;;;2273778;56;20975;-65
2021/03/24 06:27:39;;;;;;;8.38;4.20;;;3.30;68.00;;;;;;2268970;56;21054;-64
2021/03/24 06:31:38;;;;;;;9.35;4.50;;;3.30;68.20;;;;;;2287960;56;21040;-65
2021/03/24 06:41:11;;;;;;;10.38;4.82;;;3.40;68.20;;;;;;2288984;56;20946;-65
2021/03/24 06:53:25;;;;;;;8.80;3.53;;;3.50;68.60;;;;;;2270462;55;21002;-67
2021/03/24 07:00:02;;;;;;;10.73;4.43;;;3.80;68.70;;;;;;2288742;56;21042;-65
2021/03/24 07:08:58;;;;;;;16.17;8.00;;;4.00;69.70;;;;;;2273606;56;21766;-65
2021/03/24 07:15:07;;;;;;;15.05;7.90;;;4.30;70.20;;;;;;2274030;55;21146;-65
2021/03/24 07:18:00;;;;;;;14.98;8.00;;;4.70;70.80;;;;;;2288533;55;20991;-64
2021/03/24 07:21:48;;;;;;;15.23;7.87;;;4.80;71.60;;;;;;2277508;55;21053;-68
2021/03/24 07:24:31;;;;;;;11.98;6.40;;;5.00;72.10;;;;;;2291049;55;21011;-66
2021/03/24 07:28:33;;;;;;;10.70;6.25;;;5.10;72.20;;;;;;2290142;55;21022;-65
2021/03/24 07:31:20;;;;;;;16.00;7.43;;;5.30;71.90;;;;;;2285984;56;20943;-65
2021/03/24 07:40:38;;;;;;;14.95;8.38;;;5.50;72.50;;;;;;2291372;55;21042;-66
2021/03/24 07:46:01;;;;;;;11.77;6.90;;;5.60;72.80;;;;;;2288894;56;21042;-67
2021/03/24 07:54:03;;;;;;;14.13;6.62;;;6.10;72.70;;;;;;2288191;56;21449;-68
2021/03/24 07:56:51;;;;;;;11.55;6.07;;;6.50;72.60;;;;;;2288357;56;20939;-67
2021/03/24 07:59:32;;;;;;;11.43;6.32;;;6.80;73.80;;;;;;2269956;56;20990;-66
2021/03/24 08:05:38;;;;;;;14.10;7.25;;;6.90;74.70;;;;;;2288502;56;20990;-68
2021/03/24 08:11:21;;;;;;;11.55;7.25;;;7.10;75.60;;;;;;2288565;56;20938;-67
2021/03/24 08:14:25;;;;;;;8.48;5.50;;;7.80;77.20;;;;;;2287267;56;20986;-66
2021/03/24 08:20:00;;;;;;;11.30;6.72;;;8.70;78.40;;;;;;2283622;55;20966;-66
2021/03/24 08:23:22;;;;;;;8.10;5.12;;;9.20;79.30;;;;;;2288119;56;21055;-68
2021/03/24 08:26:49;;;;;;;9.55;5.65;;;10.30;78.30;;;;;;2262022;56;20999;-66
2021/03/24 08:29:44;;;;;;;7.78;4.93;;;10.90;78.90;;;;;;2269667;56;21006;-66
2021/03/24 08:33:56;;;;;;;8.55;5.70;;;11.60;78.40;;;;;;2288021;56;20979;-69
2021/03/24 08:36:37;;;;;;;7.80;5.18;;;12.30;75.90;;;;;;2269752;56;20947;-68
2021/03/24 08:41:59;;;;;;;8.77;5.30;;;12.80;77.60;;;;;;2521221;55;21460;-69
2021/03/24 08:45:52;;;;;;;6.97;4.80;;;13.60;74.60;;;;;;2503986;55;21038;-69
2021/03/24 08:48:43;;;;;;;6.90;4.80;;;14.10;73.80;;;;;;2275584;55;20967;-68
2021/03/24 08:53:13;;;;;;;7.93;5.22;;;14.40;74.80;;;;;;2284990;56;21010;-67
2021/03/24 08:55:48;;;;;;;6.65;4.25;;;14.70;73.90;;;;;;2522947;55;21287;-67
2021/03/24 08:58:25;;;;;;;8.13;5.07;;;15.20;74.00;;;;;;2522627;55;20955;-69
2021/03/24 09:05:35;;;;;;;8.95;5.00;;;15.40;72.50;;;;;;2288321;56;21459;-66
2021/03/24 09:11:20;;;;;;;7.65;3.75;;;15.80;70.50;;;;;;2287046;56;21381;-69
2021/03/24 09:14:05;;;;;;;;;;;16.80;71.90;;;;;;2286688;56;21018;-69
2021/03/24 09:18:04;;;;;;;6.45;4.10;;;17.20;72.40;;;;;;2274792;55;20078;-68
2021/03/24 09:22:38;;;;;;;5.75;4.05;;;17.90;71.60;;;;;;2281755;56;21027;-67
2021/03/24 09:26:00;;;;;;;8.18;4.22;;;18.30;72.20;;;;;;2274507;55;20962;-68
2021/03/24 09:31:16;;;;;;;6.55;4.45;;;19.00;70.40;;;;;;2288095;56;21456;-66
2021/03/24 09:33:58;;;;;;;6.25;3.80;;;19.70;69.70;;;;;;2288156;56;20930;-68
2021/03/24 09:36:40;;;;;;;6.03;4.12;;;20.00;68.70;;;;;;2288480;56;21464;-65
2021/03/24 09:40:41;;;;;;;6.43;3.90;;;20.20;68.70;;;;;;2523295;55;20935;-67
2021/03/24 09:43:26;;;;;;;6.07;3.78;;;20.40;66.00;;;;;;2522273;55;21026;-67
2021/03/24 09:45:57;;;;;;;6.10;3.95;;;20.50;65.80;;;;;;2272774;55;20974;-67
2021/03/24 09:48:23;;;;;;;7.05;3.97;;;20.50;67.60;;;;;;2511148;55;21030;-67
2021/03/24 09:51:11;;;;;;;6.60;4.15;;;20.60;67.60;;;;;;2506636;55;20969;-68
2021/03/24 09:53:39;;;;;;;7.60;4.60;;;20.70;65.00;;;;;;2281999;56;20998;-68
2021/03/24 09:56:13;;;;;;;7.78;4.47;;;20.80;68.30;;;;;;2282803;55;20967;-66
2021/03/24 10:05:40;;;;;;;7.30;4.95;;;20.90;68.70;;;;;;2503864;55;20979;-68
2021/03/24 10:08:09;;;;;;;5.22;3.50;;;21.10;65.90;;;;;;2473001;55;21049;-66
2021/03/24 10:10:36;;;;;;;6.50;4.62;;;21.70;69.10;;;;;;2478108;55;20991;-69
2021/03/24 10:13:25;;;;;;;6.95;4.50;;;21.80;68.00;;;;;;2285128;55;20969;-66
2021/03/24 10:16:05;;;;;;;7.87;4.40;;;21.90;63.50;;;;;;2522884;55;20995;-69
2021/03/24 10:18:36;;;;;;;9.38;5.30;;;21.90;66.10;;;;;;2522714;55;20932;-67
2021/03/24 10:21:13;;;;;;;7.50;5.30;;;21.90;65.00;;;;;;2276996;56;20950;-69
2021/03/24 10:23:48;;;;;;;8.32;5.12;;;21.90;63.60;;;;;;2491243;55;20987;-67
2021/03/24 10:26:32;;;;;;;10.80;6.12;;;21.80;65.00;;;;;;2287920;56;20967;-67
2021/03/24 10:29:00;;;;;;;7.65;5.12;;;21.70;64.00;;;;;;2287993;56;21618;-66
2021/03/24 10:31:41;;;;;;;9.02;5.35;;;21.70;64.30;;;;;;2498282;55;21614;-68
2021/03/24 10:34:31;;;;;;;7.45;4.87;;;21.50;64.00;;;;;;2286202;56;21109;-67
2021/03/24 10:38:41;;;;;;;7.90;4.95;;;21.30;60.90;;;;;;2288005;56;20963;-67
2021/03/24 10:41:18;;;;;;;7.97;5.00;;;21.20;63.40;;;;;;2282788;56;21993;-68
2021/03/24 10:45:28;;;;;;;8.15;4.65;;;21.00;63.60;;;;;;2279650;56;21019;-66
2021/03/24 10:48:38;;;;;;;8.98;5.20;;;20.90;62.10;;;;;;2495879;55;21754;-69
2021/03/24 10:54:29;;;;;;;9.27;4.97;;;20.80;62.60;;;;;;2522537;55;20947;-68
2021/03/24 10:57:08;;;;;;;7.75;4.65;;;20.80;62.00;;;;;;2519998;55;21006;-68
2021/03/24 10:59:46;;;;;;;7.57;5.40;;;21.00;67.00;;;;;;2275163;55;20969;-69
2021/03/24 11:02:33;;;;;;;8.02;4.80;;;21.10;65.90;;;;;;2267097;55;20958;-69
2021/03/24 11:07:42;;;;;;;8.30;5.03;;;21.30;66.60;;;;;;2523047;55;20963;-68
2021/03/24 11:12:15;;;;;;;8.63;4.62;;;21.60;65.10;;;;;;2518406;55;21026;-68
2021/03/24 11:14:55;;;;;;;6.87;4.68;;;21.80;64.60;;;;;;2288351;56;20991;-66
2021/03/24 11:17:24;;;;;;;7.82;5.07;;;21.90;68.00;;;;;;2286260;55;20998;-68
2021/03/24 11:20:03;;;;;;;7.90;5.05;;;22.00;66.90;;;;;;2272373;56;20938;-66
2021/03/24 11:22:52;;;;;;;8.50;5.47;;;22.10;65.40;;;;;;2287194;56;20954;-66
2021/03/24 11:25:57;;;;;;;7.93;5.18;;;22.20;63.10;;;;;;2291583;56;21066;-67
2021/03/24 11:28:34;;;;;;;8.85;5.00;;;22.30;63.20;;;;;;2288396;56;21487;-67
2021/03/24 11:31:08;;;;;;;8.40;5.18;;;22.40;65.50;;;;;;2269909;55;21026;-68
2021/03/24 11:33:43;;;;;;;8.73;4.97;;;22.40;63.80;;;;;;2272222;56;20950;-68
2021/03/24 11:36:26;;;;;;;7.28;4.78;;;22.30;63.20;;;;;;2287353;56;23003;-68
2021/03/24 11:45:43;;;;;;;8.10;4.65;;;22.20;62.30;;;;;;2522369;55;20934;-68
2021/03/24 11:48:38;;;;;;;6.50;4.07;;;22.30;64.10;;;;;;2495453;55;20994;-67
2021/03/24 11:51:22;;;;;;;6.97;4.37;;;22.40;66.50;;;;;;2277940;56;20985;-66
2021/03/24 12:07:17;;;;;;;7.05;5.05;;;22.60;65.90;;;;;;2284733;56;20939;-66
2021/03/24 12:09:46;;;;;;;5.85;3.72;;;23.50;65.80;;;;;;2521841;55;20938;-65
2021/03/24 12:12:15;;;;;;;8.60;5.35;;;23.60;67.30;;;;;;2282122;55;21109;-66
2021/03/24 12:14:47;;;;;;;7.22;4.75;;;23.70;66.50;;;;;;2495957;55;21066;-65
2021/03/24 12:17:26;;;;;;;8.63;5.07;;;23.80;65.70;;;;;;2270959;55;20943;-64
2021/03/24 12:20:07;;;;;;;7.70;4.93;;;23.90;63.00;;;;;;2270060;56;21010;-66
2021/03/24 12:22:33;;;;;;;7.50;5.15;;;23.90;62.20;;;;;;2288194;56;21011;-65
2021/03/24 12:25:13;;;;;;;6.85;4.47;;;23.90;64.30;;;;;;2522774;55;21746;-65
2021/03/24 12:27:47;;;;;;;8.13;5.62;;;23.90;63.80;;;;;;2522553;55;20994;-64
2021/03/24 12:32:06;;;;;;;8.55;5.65;;;23.90;63.10;;;;;;2522755;55;21098;-67
2021/03/24 12:34:36;;;;;;;6.80;4.53;;;24.10;58.40;;;;;;2522355;55;20939;-63
2021/03/24 12:37:03;;;;;;;6.85;4.32;;;24.00;63.20;;;;;;2509561;55;21002;-66
2021/03/24 12:39:39;;;;;;;6.20;4.47;;;24.10;63.60;;;;;;2270371;56;20966;-65
2021/03/24 12:42:21;;;;;;;8.68;5.45;;;24.10;62.90;;;;;;2512550;55;20927;-65
2021/03/24 12:44:48;;;;;;;8.85;5.00;;;24.10;60.40;;;;;;2271083;56;20998;-66
2021/03/24 12:48:24;;;;;;;7.20;4.53;;;24.10;62.60;;;;;;2275285;56;21004;-67
2021/03/24 12:51:23;;;;;;;7.32;4.35;;;24.20;59.60;;;;;;2253082;56;21046;-65
2021/03/24 12:53:59;;;;;;;7.35;4.47;;;24.10;58.50;;;;;;2518799;55;21007;-65
2021/03/24 12:57:02;;;;;;;7.37;4.43;;;24.10;59.90;;;;;;2273751;56;20970;-64
2021/03/24 13:03:57;;;;;;;6.85;4.37;;;24.00;58.70;;;;;;2510812;55;21942;-67
2021/03/24 13:13:24;;;;;;;6.55;3.85;;;24.00;59.90;;;;;;2269535;56;20991;-69
2021/03/24 13:16:42;;;;;;;8.30;3.42;;;23.90;61.30;;;;;;2288260;56;20975;-69
2021/03/24 13:19:28;;;;;;;7.32;4.00;;;23.90;59.50;;;;;;2288474;56;21046;-73
2021/03/24 13:24:49;;;;;;;7.30;4.07;;;23.90;59.50;;;;;;2288036;56;20930;-67
2021/03/24 13:33:13;;;;;;;5.85;3.50;;;23.70;59.60;;;;;;2496790;55;20974;-68
2021/03/24 13:35:56;;;;;;;4.62;2.65;;;23.50;59.50;;;;;;2508479;55;21491;-69
2021/03/24 13:38:50;;;;;;;4.60;2.72;;;23.20;58.90;;;;;;2270964;55;21124;-69
2021/03/24 13:41:16;;;;;;;4.03;2.55;;;23.10;58.00;;;;;;2522353;55;21746;-66
2021/03/24 13:43:48;;;;;;;4.50;2.62;;;23.00;60.40;;;;;;2520708;55;20983;-69
2021/03/24 13:46:35;;;;;;;4.75;2.75;;;22.80;59.30;;;;;;2500224;55;21447;-67
2021/03/24 13:49:20;;;;;;;4.35;2.30;;;22.70;58.50;;;;;;2270027;56;20978;-68
2021/03/24 13:51:47;;;;;;;6.43;2.62;;;22.70;58.90;;;;;;2278165;55;21030;-67
2021/03/24 14:00:05;;;;;;;4.62;2.65;;;22.60;58.10;;;;;;2284837;56;21066;-67
2021/03/24 14:02:45;;;;;;;;;;;22.50;56.50;;;;;;2526008;55;21804;-67
2021/03/24 14:05:53;;;;;;;4.22;1.95;;;22.50;58.20;;;;;;2262001;56;20070;-69
2021/03/24 14:11:33;;;;;;;3.65;1.90;;;22.40;57.70;;;;;;2287713;56;21407;-66
2021/03/24 14:14:32;;;;;;;4.62;2.15;;;22.40;57.70;;;;;;2521672;55;21006;-67
2021/03/24 14:17:07;;;;;;;3.28;1.77;;;22.40;58.30;;;;;;2272325;55;21013;-65
2021/03/24 14:19:43;;;;;;;3.62;1.50;;;22.30;58.50;;;;;;2273757;55;20983;-66
2021/03/24 14:23:35;;;;;;;3.35;1.60;;;22.30;57.10;;;;;;2288989;56;20964;-66
2021/03/24 14:26:10;;;;;;;4.25;2.33;;;22.30;56.00;;;;;;2288585;56;20983;-65
2021/03/24 14:29:05;;;;;;;3.72;2.00;;;22.30;58.50;;;;;;2523035;55;21007;-65
2021/03/24 14:31:37;;;;;;;4.25;2.45;;;22.30;57.10;;;;;;2276738;55;20983;-65
2021/03/24 14:34:22;;;;;;;3.60;1.90;;;22.30;57.50;;;;;;2505065;55;21006;-65
2021/03/24 14:36:51;;;;;;;3.80;2.08;;;22.30;55.90;;;;;;2280024;55;21056;-66
2021/03/24 14:40:24;;;;;;;3.72;1.98;;;22.30;58.10;;;;;;2287057;56;21522;-65
2021/03/24 14:42:56;;;;;;;3.17;1.60;;;22.30;55.80;;;;;;2283988;56;20930;-66
2021/03/24 14:48:36;;;;;;;4.00;1.87;;;22.30;57.50;;;;;;2274535;56;20955;-65
2021/03/24 14:51:05;;;;;;;3.55;1.83;;;22.30;56.80;;;;;;2290704;55;21011;-65
2021/03/24 14:53:39;;;;;;;4.70;2.40;;;22.30;58.20;;;;;;2272811;56;20982;-67
2021/03/24 14:56:52;;;;;;;6.22;3.45;;;22.30;56.40;;;;;;2290341;55;20994;-66
2021/03/24 14:59:36;;;;;;;5.40;2.35;;;22.30;56.90;;;;;;2292009;56;21078;-65
2021/03/24 15:02:39;;;;;;;3.78;1.92;;;22.20;55.50;;;;;;2288709;56;20967;-65
2021/03/24 15:05:54;;;;;;;;;;;22.20;54.60;;;;;;2273225;55;20985;-65
2021/03/24 15:09:12;;;;;;;3.08;1.60;;;22.20;55.60;;;;;;2277337;56;20114;-68
2021/03/24 15:11:46;;;;;;;5.45;1.75;;;22.20;55.20;;;;;;2513274;55;21093;-64
2021/03/24 15:14:36;;;;;;;3.53;1.70;;;22.10;55.90;;;;;;2283450;55;21030;-65
2021/03/24 15:17:54;;;;;;;3.72;1.65;;;22.00;54.70;;;;;;2288432;56;20979;-66
2021/03/24 15:20:42;;;;;;;4.50;1.60;;;22.00;54.20;;;;;;2504799;55;20986;-66
2021/03/24 15:28:17;;;;;;;3.75;1.65;;;22.00;54.70;;;;;;2520249;55;21098;-66
2021/03/24 15:31:19;;;;;;;2.78;1.10;;;21.90;55.00;;;;;;2288803;56;21083;-65
2021/03/24 15:33:57;;;;;;;3.33;1.17;;;21.90;54.30;;;;;;2269656;55;20978;-64
2021/03/24 15:39:03;;;;;;;2.67;1.23;;;21.70;55.80;;;;;;2269854;56;20962;-66
2021/03/24 15:43:09;;;;;;;2.97;1.20;;;21.70;55.70;;;;;;2496043;55;20962;-65
2021/03/24 15:45:41;;;;;;;2.20;0.98;;;21.50;53.60;;;;;;2288293;56;20979;-66
2021/03/24 15:48:20;;;;;;;;;;;21.40;55.50;;;;;;2291706;56;20952;-65
2021/03/24 15:50:51;;;;;;;2.33;1.02;;;21.40;54.20;;;;;;2289127;56;20125;-65
2021/03/24 15:53:58;;;;;;;2.70;0.95;;;21.30;55.60;;;;;;2288607;56;20994;-65
2021/03/24 15:59:40;;;;;;;3.28;1.15;;;21.20;55.10;;;;;;2522618;55;20963;-65
2021/03/24 16:02:43;;;;;;;2.95;1.30;;;21.10;54.30;;;;;;2277263;55;21006;-65
2021/03/24 16:05:27;;;;;;;3.00;1.30;;;21.00;54.30;;;;;;2282341;55;21078;-64
2021/03/24 16:09:09;;;;;;;3.97;1.60;;;20.90;54.80;;;;;;2288625;56;20931;-65
2021/03/24 16:13:03;;;;;;;3.20;1.20;;;20.90;54.30;;;;;;2522824;55;21031;-65
2021/03/24 16:20:03;;;;;;;3.45;1.50;;;20.80;54.80;;;;;;2290957;56;20987;-67
2021/03/24 16:25:19;;;;;;;2.95;1.27;;;20.60;53.70;;;;;;2291645;56;20954;-65
2021/03/24 16:34:36;;;;;;;2.95;1.08;;;20.50;54.90;;;;;;2288266;56;20990;-65
2021/03/24 16:37:32;;;;;;;3.80;1.45;;;20.30;55.90;;;;;;2290466;56;21816;-65
2021/03/24 16:41:58;;;;;;;2.83;1.20;;;20.00;55.30;;;;;;2471775;55;20994;-66
2021/03/24 16:46:10;;;;;;;2.90;1.02;;;19.80;54.50;;;;;;2288852;56;21399;-64
2021/03/24 16:52:28;;;;;;;2.60;1.15;;;19.70;54.30;;;;;;2523188;55;20995;-66
2021/03/24 16:55:18;;;;;;;2.72;1.20;;;19.60;54.20;;;;;;2288190;56;20971;-64
2021/03/24 16:59:21;;;;;;;3.72;1.42;;;19.40;55.30;;;;;;2523310;55;21432;-65
2021/03/24 17:02:15;;;;;;;2.78;1.20;;;19.40;55.70;;;;;;2522652;55;21052;-64
2021/03/24 17:04:59;;;;;;;4.07;1.50;;;19.20;55.10;;;;;;2501788;55;21019;-64
2021/03/24 17:07:29;;;;;;;3.10;1.50;;;19.10;55.70;;;;;;2521337;55;20995;-65
2021/03/24 17:10:42;;;;;;;3.33;1.70;;;19.00;55.60;;;;;;2288806;56;21034;-64
2021/03/24 17:13:32;;;;;;;3.25;1.35;;;18.90;54.50;;;;;;2269365;55;21045;-64
2021/03/24 17:19:52;;;;;;;3.00;1.30;;;18.80;55.40;;;;;;2495433;55;20987;-65
2021/03/24 17:22:23;;;;;;;2.90;0.95;;;18.60;54.20;;;;;;2500916;55;20974;-65
2021/03/24 17:25:30;;;;;;;3.43;1.40;;;18.40;55.30;;;;;;2286469;56;21445;-64
2021/03/24 17:28:22;;;;;;;2.72;1.20;;;18.30;53.90;;;;;;2287614;56;20951;-65